Valley Peak, Santa Cruz Island Reserve, California Weather observations

Data are for 10 minute period ending at time listed.
 Day   Time   Solar   Ave.   Ave.  Ave.  Vector  Max.   Baro.   Total    
  of    of     Rad.   Air    Rel.  Wind   Wind   Wind  Press.  Precip.   
Year   Day            Temp.  Hum.  Speed  Dir.   Gust                    
2014   (PST)  Kw/m2    F      %     mph   deg.    mph    mb.     in.     
-------------------------------------------------------------------------
 262    0:00   0.00   59.5    91    5.9    44     7.0   962.1    0.00 
 262    0:10   0.00   60.1    87    4.3    54     5.5   962.2    0.00 
 262    0:20   0.00   60.6    83    4.6    41     7.4   962.3    0.00 
 262    0:30   0.00   60.4    87    8.0    28     9.3   962.3    0.00 
 262    0:40   0.00   59.8    90    6.7    36     9.3   962.4    0.00 
 262    0:50   0.00   59.4    92    3.3    28     5.1   962.4    0.00 
 262    1:00   0.00   60.5    84    3.7   339     6.0   962.3    0.00 
 262    1:10   0.00   60.9    85    5.8    12     7.1   962.3    0.00 
 262    1:20   0.00   59.7    90    7.3    22     8.8   962.2    0.00 
 262    1:30   0.00   59.4    92    6.6    19     9.6   962.3    0.00 
 262    1:40   0.00   59.3    93    4.0    12     5.8   962.3    0.00 
 262    1:50   0.00   59.4    93    2.4    22     5.0   962.3    0.00 
 262    2:00   0.00   59.4    91    2.4   332     5.1   962.3    0.00 
 262    2:10   0.00   59.3    92    1.3   358     3.0   962.3    0.00 
 262    2:20   0.00   59.4    93    2.2    16     4.9   962.3    0.00 
 262    2:30   0.00   59.6    90    3.4   231     4.8   962.3    0.00 
 262    2:40   0.00   60.1    88    5.1   208     6.5   962.2    0.00 
 262    2:50   0.00   60.0    88    6.4   213     8.3   962.1    0.00 
 262    3:00   0.00   59.2    90    9.1   236    11.8   962.1    0.00 
 262    3:10   0.00   58.8    91    7.5   237     9.9   962.2    0.00 
 262    3:20   0.00   58.4    92    6.6   219     8.1   962.3    0.00 
 262    3:30   0.00   58.8    93    6.3   193     8.3   962.3    0.00 
 262    3:40   0.00   58.8    94    7.5   170     8.8   962.3    0.00 
 262    3:50   0.00   58.9    95    7.3   169     8.6   962.4    0.00 
 262    4:00   0.00   58.8    96    6.5   165     7.5   962.4    0.00 
 262    4:10   0.00   58.8    96    6.1   158     7.5   962.4    0.00 
 262    4:20   0.00   58.6    97    5.0   151     6.6   962.4    0.00 
 262    4:30   0.00   58.5    97    3.9   149     5.2   962.4    0.00 
 262    4:40   0.00   58.9    98    3.4   161     4.9   962.5    0.00 
 262    4:50   0.00   58.5    97    3.1   219     4.1   962.6    0.00 
 262    5:00   0.00   58.2    97    3.2   230     4.7   962.7    0.00 
 262    5:10   0.00   58.2    97    5.6   243     8.4   962.8    0.00 
 262    5:20   0.00   58.1    97    6.7   243     9.7   962.9    0.00 
 262    5:30   0.00   58.1    97    7.1   246     9.0   963.0    0.00 
 262    5:40   0.00   58.3    97    5.5   262     7.3   963.2    0.00 
 262    5:50   0.00   58.5    97    5.6   242     7.5   963.1    0.00 
 262    6:00   0.00   58.7    96    5.1   236     7.2   963.1    0.00 
 262    6:10   0.01   59.2    96    4.4   213     7.8   963.2    0.00 
 262    6:20   0.06   59.5    96    4.2   185     6.1   963.3    0.00 
 262    6:30   0.09   59.8    96    3.5   152     5.7   963.4    0.00 
 262    6:40   0.13   60.0    95    2.6   138     4.6   963.5    0.00 
 262    6:50   0.17   60.5    95    2.6   128     4.2   963.6    0.00 
 262    7:00   0.15   61.5    93    3.3   116     5.4   963.7    0.00 
 262    7:10   0.09   61.9    91    3.2   108     6.2   963.7    0.00 
 262    7:20   0.09   62.3    90    2.6   120     5.8   963.8    0.00 
 262    7:30   0.10   63.0    89    2.6   101     4.4   963.9    0.00 
 262    7:40   0.10   63.4    87    2.3    58     3.7   963.9    0.00 
 262    7:50   0.10   63.4    87    1.3    58     4.7   963.9    0.00 
 262    8:00   0.12   63.7    86    1.8    97     4.4   963.9    0.00 
 262    8:10   0.12   64.3    85    1.9    94     4.5   963.9    0.00 
 262    8:20   0.12   64.7    83    1.5    91     3.9   963.9    0.00 
 262    8:30   0.14   65.2    82    1.9    95     5.0   964.0    0.00 
 262    8:40   0.14   65.6    81    2.9   108     7.1   964.1    0.00 
 262    8:50   0.15   66.0    81    3.3    62     5.5   964.1    0.00 
 262    9:00   0.18   66.2    81    2.4    53     5.0   964.1    0.00 
 262    9:10   0.17   66.9    80    3.3    66     5.4   964.0    0.00 
 262    9:20   0.15   66.7    80    2.7    63     5.2   964.0    0.00 
 262    9:30   0.18   66.5    81    3.0    54     6.9   964.0    0.00 
 262    9:40   0.20   66.0    82    2.6    46     6.3   964.0    0.00 
 262    9:50   0.24   66.1    82    3.0    39     6.6   963.9    0.00 
 262   10:00   0.24   67.3    79    3.0    66     5.1   963.8    0.00 
 262   10:10   0.23   68.0    77    2.7    70     4.7   963.7    0.00 
 262   10:20   0.30   68.8    74    4.2    83     9.6   963.7    0.00 
 262   10:30   0.43   69.0    74    3.7    88    10.0   963.6    0.00 
 262   10:40   0.74   71.5    68    3.6   105     8.4   963.6    0.00 
 262   10:50   0.76   74.4    61    4.2   131    10.1   963.5    0.00 
 262   11:00   0.80   74.5    59    4.3   134    10.4   963.4    0.00 
 262   11:10   0.85   76.3    55    6.3   117    11.8   963.4    0.00 
 262   11:20   0.84   75.2    56    5.9   137    13.2   963.4    0.00 
 262   11:30   0.84   75.7    56    4.7   117    10.1   963.3    0.00 
 262   11:40   0.85   76.6    55    5.2   106    10.2   963.3    0.00 
 262   11:50   0.85   77.1    55    4.7    97    10.2   963.3    0.00 
 262   12:00   0.86   77.1    55    3.8   114     9.0   963.3    0.00 
 262   12:10   0.86   78.3    53    5.1   107    10.2   963.4    0.00 
 262   12:20   0.86   78.3    53    5.2   103    11.4   963.3    0.00 
 262   12:30   0.89   78.0    55    4.4    81     7.5   963.3    0.00 
 262   12:40   0.75   77.4    57    4.1    59     8.0   963.2    0.00 
 262   12:50   0.47   74.8    62    5.3    47     9.9   963.1    0.00 
 262   13:00   0.75   73.3    65    5.3    41     9.1   963.0    0.00 
 262   13:10   0.65   71.9    67    5.7    40     9.9   962.9    0.00 
 262   13:20   0.64   72.9    65    3.4    56     9.0   962.8    0.00 
 262   13:30   0.82   74.2    63    3.3    57     6.0   962.8    0.00 
 262   13:40   0.81   76.4    59    3.8    62     6.4   962.7    0.00 
 262   13:50   0.78   76.6    59    3.6    67     7.1   962.7    0.00 
 262   14:00   0.70   76.4    59    3.2    41     6.7   962.7    0.00 
 262   14:10   0.67   75.9    59    2.8    50     5.6   962.7    0.00 
 262   14:20   0.65   75.5    60    2.4    49     4.8   962.6    0.00 
 262   14:30   0.62   76.3    58    2.3    48     5.6   962.5    0.00 
 262   14:40   0.59   73.2    64    6.0    35     9.9   962.5    0.00 
 262   14:50   0.56   71.8    67    6.5    30    10.1   962.4    0.00 
 262   15:00   0.53   70.6    69    6.9    31    10.2   962.3    0.00 
 262   15:10   0.50   70.6    69    6.2    27     8.9   962.3    0.00 
 262   15:20   0.47   70.8    69    5.5    32     8.1   962.1    0.00 
 262   15:30   0.44   71.2    68    5.8    30     7.9   962.1    0.00 
 262   15:40   0.41   71.1    69    6.2    31     9.0   962.1    0.00 
 262   15:50   0.37   69.6    72    8.1    31    11.9   962.1    0.00 
 262   16:00   0.34   67.9    76   10.4    33    14.7   962.0    0.00 
 262   16:10   0.30   66.9    78   10.2    31    12.6   962.0    0.00 
 262   16:20   0.27   66.0    81   11.0    30    13.9   961.8    0.00 
 262   16:30   0.24   66.1    81   10.0    31    12.5   961.7    0.00 
 262   16:40   0.22   65.4    83   11.0    31    13.4   961.7    0.00 
 262   16:50   0.18   63.2    89   12.3    31    14.5   961.6    0.00 
 262   17:00   0.14   62.5    91   12.1    32    14.2   961.6    0.00 
 262   17:10   0.11   62.3    91   11.9    30    14.1   961.6    0.00 
 262   17:20   0.08   62.7    89   11.3    28    13.2   961.6    0.00 
 262   17:30   0.05   62.5    89   10.5    28    12.7   961.8    0.00 
 262   17:40   0.03   61.8    91   10.4    26    12.3   961.8    0.00 
 262   17:50   0.01   61.2    92    9.6    19    11.0   961.9    0.00 
 262   18:00   0.00   60.6    93    8.5    16    10.6   961.9    0.00 
 262   18:10   0.00   60.1    94    8.6     7    10.4   961.8    0.00 
 262   18:20   0.00   60.0    94    9.5    18    11.3   961.9    0.00 
 262   18:30   0.00   59.9    94    9.9    22    11.3   961.9    0.00 
 262   18:40   0.00   59.9    94   10.5    26    12.5   962.0    0.00 
 262   18:50   0.00   60.1    94    9.1    14    11.5   962.2    0.00 
 262   19:00   0.00   60.4    92    7.5    10     9.4   962.4    0.00 
 262   19:10   0.00   61.5    88    7.1     5     9.1   962.5    0.00 
 262   19:20   0.00   60.6    91    6.9    21     8.0   962.7    0.00 
 262   19:30   0.00   59.9    93    6.8    30     8.8   962.7    0.00 
 262   19:40   0.00   59.5    94    6.6    22     8.0   962.8    0.00 
 262   19:50   0.00   59.5    95    7.8    12     9.3   962.8    0.00 
 262   20:00   0.00   59.5    94    8.6    11     9.9   962.8    0.00 
 262   20:10   0.00   60.2    91   10.0   356    12.1   962.8    0.00 
 262   20:20   0.00   60.4    90   10.3     0    12.6   962.7    0.00 
 262   20:30   0.00   60.4    91   10.2     2    13.2   962.9    0.00 
 262   20:40   0.00   60.0    92   10.6    12    11.7   962.9    0.00 
 262   20:50   0.00   59.9    92   10.9    12    15.4   962.9    0.00 
 262   21:00   0.00   60.5    89   11.8     5    15.1   962.9    0.00 
 262   21:10   0.00   60.6    89   11.7    10    14.4   963.0    0.00 
 262   21:20   0.00   60.5    89   11.2    14    12.6   963.1    0.00 
 262   21:30   0.00   60.4    89   10.4    13    12.3   963.1    0.00 
 262   21:40   0.00   61.0    86    9.9     2    12.6   963.1    0.00 
 262   21:50   0.00   62.3    82    9.4   359    13.0   963.2    0.00 
 262   22:00   0.00   62.4    82    9.8     4    14.0   963.2    0.00 
 262   22:10   0.00   62.1    82    9.8    11    14.1   963.2    0.00 
 262   22:20   0.00   62.0    83    9.3     9    12.5   963.2    0.00 
 262   22:30   0.00   61.8    83    9.2     8    12.1   963.2    0.00 
 262   22:40   0.00   61.6    84    8.8   359    10.7   963.2    0.00 
 262   22:50   0.00   62.2    82    8.1   348     9.6   963.2    0.00 
 262   23:00   0.00   63.5    78    6.6   338     8.6   963.2    0.00 
 262   23:10   0.00   63.8    76    5.3   342     5.9   963.2    0.00 
 262   23:20   0.00   63.4    78    3.6     2     5.3   963.2    0.00 
 262   23:30   0.00   63.3    78    3.5   353     4.2   963.3    0.00 
 262   23:40   0.00   63.4    78    2.4   351     3.9   963.3    0.00 

Return to Valley Peak, Santa Cruz Island Reserve graphs page.


Western Regional Climate Center,wrcc@dri.edu